Time;durP1;ratioP1;P1;durP2;ratioP2;P2;SDS_P1;SDS_P2;PMS_P1;PMS_P2;Temp;Humidity;BMP_temperature;BMP_pressure;BME280_temperature;BME280_humidity;BME280_pressure;Samples;Min_cycle;Max_cycle;Signal;HPM_P1;HPM_P2
2023/10/06 00:00:44;;;;;;;15.02;5.20;;;14.90;99.90;;;;;;4974651;28;20415;-74
2023/10/06 00:03:30;;;;;;;18.33;4.75;;;14.90;99.90;;;;;;4974111;28;20097;-74
2023/10/06 00:06:22;;;;;;;11.63;3.97;;;14.90;99.90;;;;;;4974110;28;20149;-76
2023/10/06 00:09:28;;;;;;;9.80;3.72;;;14.80;99.90;;;;;;4974060;28;20066;-73
2023/10/06 00:12:16;;;;;;;14.32;3.80;;;14.80;99.90;;;;;;4974358;28;20051;-72
2023/10/06 00:15:07;;;;;;;17.17;3.70;;;14.80;99.90;;;;;;4975086;28;20066;-73
2023/10/06 00:18:00;;;;;;;14.60;3.72;;;14.90;99.90;;;;;;4972802;28;20407;-73
2023/10/06 00:20:48;;;;;;;16.23;3.80;;;14.90;99.90;;;;;;4972495;28;20061;-78
2023/10/06 00:23:38;;;;;;;12.00;3.40;;;14.90;99.90;;;;;;4960510;28;20411;-72
2023/10/06 00:26:26;;;;;;;13.77;3.13;;;14.90;99.90;;;;;;4973415;28;20051;-81
2023/10/06 00:29:21;;;;;;;12.13;3.70;;;14.90;99.90;;;;;;4974572;28;20094;-73
2023/10/06 00:32:22;;;;;;;7.80;3.35;;;14.90;99.90;;;;;;4973475;28;20046;-76
2023/10/06 00:35:08;;;;;;;15.18;4.63;;;14.90;99.90;;;;;;4972032;28;20094;-72
2023/10/06 00:37:57;;;;;;;9.27;3.10;;;14.90;99.90;;;;;;4973157;28;20058;-72
2023/10/06 00:40:54;;;;;;;14.73;3.60;;;15.00;99.90;;;;;;4972990;28;20046;-71
2023/10/06 00:43:43;;;;;;;9.48;3.22;;;14.90;99.90;;;;;;4972918;28;20139;-78
2023/10/06 00:46:29;;;;;;;15.73;3.35;;;14.90;99.90;;;;;;4972090;28;20090;-76
2023/10/06 00:49:18;;;;;;;18.08;4.63;;;14.90;99.90;;;;;;4974500;28;20055;-72
2023/10/06 00:52:06;;;;;;;9.82;3.45;;;14.90;99.90;;;;;;4972990;28;20050;-76
2023/10/06 00:54:52;;;;;;;13.45;4.13;;;15.00;99.90;;;;;;4971933;28;20059;-78
2023/10/06 00:57:40;;;;;;;15.30;4.30;;;15.00;99.90;;;;;;4974038;28;20086;-73
2023/10/06 01:00:31;;;;;;;15.85;4.15;;;14.90;99.90;;;;;;4971870;28;20055;-76
2023/10/06 01:03:17;;;;;;;15.57;4.32;;;15.00;99.90;;;;;;4972957;28;20514;-72
2023/10/06 01:06:07;;;;;;;13.35;4.38;;;14.90;99.90;;;;;;4972890;28;20066;-73
2023/10/06 01:09:06;;;;;;;10.23;3.78;;;14.90;99.90;;;;;;4972659;28;20511;-78
2023/10/06 01:11:52;;;;;;;16.60;4.82;;;14.90;99.90;;;;;;4972232;28;20561;-84
2023/10/06 01:14:38;;;;;;;12.98;4.15;;;14.90;99.90;;;;;;4972532;28;20062;-79
2023/10/06 01:17:24;;;;;;;13.25;3.85;;;14.90;99.90;;;;;;4972246;28;20050;-74
2023/10/06 01:20:13;;;;;;;13.75;4.63;;;14.90;99.90;;;;;;4972846;28;20050;-83
2023/10/06 01:22:59;;;;;;;16.25;4.20;;;14.90;99.90;;;;;;4972156;28;20134;-73
2023/10/06 01:25:46;;;;;;;11.20;4.13;;;14.90;99.90;;;;;;4972045;28;20146;-73
2023/10/06 01:28:34;;;;;;;12.10;5.10;;;14.90;99.90;;;;;;4957967;28;20050;-72
2023/10/06 01:31:21;;;;;;;17.48;4.97;;;14.90;99.90;;;;;;4972684;28;20043;-73
2023/10/06 01:34:11;;;;;;;12.23;4.95;;;14.90;99.90;;;;;;4972951;28;20121;-74
2023/10/06 01:36:57;;;;;;;16.20;5.28;;;14.90;99.90;;;;;;4973735;28;20113;-76
2023/10/06 01:39:46;;;;;;;14.35;4.63;;;14.90;99.90;;;;;;4972172;28;20113;-79
2023/10/06 01:42:31;;;;;;;13.75;5.38;;;15.00;99.90;;;;;;4973590;28;20086;-73
2023/10/06 01:45:21;;;;;;;15.10;4.60;;;15.00;99.90;;;;;;4973477;28;20057;-73
2023/10/06 01:50:59;;;;;;;18.52;4.75;;;15.00;99.90;;;;;;4971803;28;20569;-76
2023/10/06 01:53:45;;;;;;;12.32;4.03;;;15.00;99.90;;;;;;4971863;28;20101;-74
2023/10/06 01:56:31;;;;;;;16.13;4.28;;;15.00;99.90;;;;;;4971193;28;20062;-74
2023/10/06 01:59:17;;;;;;;13.07;3.90;;;15.00;99.90;;;;;;4971866;28;20054;-76
2023/10/06 02:02:07;;;;;;;13.93;3.42;;;15.00;99.90;;;;;;4973245;28;20082;-83
2023/10/06 02:04:57;;;;;;;12.73;4.25;;;15.00;99.90;;;;;;4973093;28;20050;-76
2023/10/06 02:07:44;;;;;;;13.38;4.63;;;15.00;99.90;;;;;;4970714;28;20078;-72
2023/10/06 02:10:32;;;;;;;17.83;4.13;;;15.00;99.90;;;;;;4971746;28;20484;-77
2023/10/06 02:13:21;;;;;;;17.48;4.88;;;15.00;99.90;;;;;;4971288;28;20116;-82
2023/10/06 02:16:08;;;;;;;15.57;5.03;;;15.00;99.90;;;;;;4971804;28;20074;-76
2023/10/06 02:18:55;;;;;;;14.13;4.55;;;15.00;99.90;;;;;;4971135;28;20422;-75
2023/10/06 02:21:45;;;;;;;16.20;4.50;;;15.00;99.90;;;;;;4971816;28;20106;-79
2023/10/06 02:24:33;;;;;;;10.93;4.18;;;15.00;99.90;;;;;;4973364;28;20118;-76
2023/10/06 02:27:19;;;;;;;14.20;5.13;;;15.00;99.90;;;;;;4972675;28;20574;-73
2023/10/06 02:30:10;;;;;;;15.77;4.00;;;15.00;99.90;;;;;;4973014;28;20043;-78
2023/10/06 02:32:56;;;;;;;14.25;4.03;;;15.00;99.90;;;;;;4971644;28;20147;-75
2023/10/06 02:35:46;;;;;;;12.77;3.65;;;14.90;99.90;;;;;;4972313;28;20054;-78
2023/10/06 02:38:42;;;;;;;12.85;3.42;;;15.00;99.90;;;;;;4971803;28;20130;-77
2023/10/06 02:41:28;;;;;;;12.07;3.22;;;15.00;99.90;;;;;;4971166;28;20147;-73
2023/10/06 02:44:22;;;;;;;13.55;4.07;;;14.90;99.90;;;;;;4970701;28;20558;-73
2023/10/06 02:47:13;;;;;;;12.40;3.95;;;15.00;99.90;;;;;;4958326;28;20054;-82
2023/10/06 02:49:59;;;;;;;11.52;3.72;;;15.00;99.90;;;;;;4971602;28;20141;-91
2023/10/06 02:52:46;;;;;;;15.52;3.42;;;15.00;99.90;;;;;;4971237;28;20491;-89
2023/10/06 02:55:32;;;;;;;13.23;3.33;;;14.90;99.90;;;;;;4971373;28;20051;-82
2023/10/06 02:58:30;;;;;;;21.05;3.78;;;15.00;99.90;;;;;;4959379;28;20054;-84
2023/10/06 03:01:16;;;;;;;15.70;3.70;;;14.90;99.90;;;;;;4975004;28;20051;-84
2023/10/06 03:04:07;;;;;;;17.60;4.20;;;15.00;99.90;;;;;;4962012;28;20406;-72
2023/10/06 03:06:57;;;;;;;11.93;3.38;;;14.90;99.90;;;;;;4975268;28;20098;-72
2023/10/06 03:09:47;;;;;;;17.15;3.35;;;14.90;99.90;;;;;;4974808;28;20047;-72
2023/10/06 03:12:33;;;;;;;17.17;3.50;;;14.90;99.90;;;;;;4974758;28;20078;-71
2023/10/06 03:15:33;;;;;;;16.08;3.13;;;14.90;99.90;;;;;;4976054;28;20150;-73
2023/10/06 03:18:19;;;;;;;15.93;3.78;;;14.80;99.90;;;;;;4974544;28;20058;-73
2023/10/06 03:23:59;;;;;;;19.98;4.63;;;14.80;99.90;;;;;;4973463;28;20055;-73
2023/10/06 03:26:46;;;;;;;13.10;4.10;;;14.90;99.90;;;;;;4960458;28;20392;-73
2023/10/06 03:29:49;;;;;;;15.77;4.00;;;14.80;99.90;;;;;;4974387;28;20089;-73
2023/10/06 03:32:39;;;;;;;14.85;3.25;;;14.90;99.90;;;;;;4960461;28;20150;-77
2023/10/06 03:35:48;;;;;;;14.65;3.50;;;14.90;99.90;;;;;;4974395;28;20069;-72
2023/10/06 03:38:36;;;;;;;14.80;4.00;;;14.90;99.90;;;;;;4974088;28;20051;-74
2023/10/06 03:41:26;;;;;;;12.57;4.28;;;14.90;99.90;;;;;;4974417;28;20103;-73
2023/10/06 03:44:12;;;;;;;17.08;4.10;;;14.90;99.90;;;;;;4960818;28;20055;-76
2023/10/06 03:47:00;;;;;;;9.15;3.65;;;14.90;99.90;;;;;;4974128;28;20050;-73
2023/10/06 03:49:47;;;;;;;11.13;3.28;;;14.90;99.90;;;;;;4961532;28;20392;-79
2023/10/06 03:52:34;;;;;;;16.48;4.32;;;14.90;99.90;;;;;;4973897;28;20411;-74
2023/10/06 03:55:20;;;;;;;14.52;4.30;;;14.90;99.90;;;;;;4974095;28;20061;-75
2023/10/06 03:58:11;;;;;;;25.33;5.97;;;14.80;99.90;;;;;;4974442;28;20065;-77
2023/10/06 04:00:58;;;;;;;14.77;4.70;;;14.80;99.90;;;;;;4972880;28;20057;-74
2023/10/06 04:03:44;;;;;;;17.75;4.95;;;14.70;99.90;;;;;;4974216;28;20046;-78
2023/10/06 04:06:34;;;;;;;13.43;5.05;;;14.70;99.90;;;;;;4974151;28;20138;-81
2023/10/06 04:09:27;;;;;;;15.48;5.13;;;14.60;99.90;;;;;;4973164;28;20059;-84
2023/10/06 04:12:13;;;;;;;15.02;5.13;;;14.60;99.90;;;;;;4974195;28;20101;-89
2023/10/06 04:14:59;;;;;;;21.80;6.00;;;14.50;99.90;;;;;;4974091;28;20116;-80
2023/10/06 04:17:45;;;;;;;19.65;7.13;;;14.40;99.90;;;;;;4976018;28;20062;-80
2023/10/06 04:20:33;;;;;;;30.35;8.95;;;14.40;99.90;;;;;;4976595;28;20149;-84
2023/10/06 04:23:22;;;;;;;22.10;7.90;;;14.40;99.90;;;;;;4963881;28;20058;-82
2023/10/06 04:26:13;;;;;;;25.05;7.22;;;14.40;99.90;;;;;;4976767;28;20060;-84
2023/10/06 04:29:01;;;;;;;22.67;9.40;;;14.40;99.90;;;;;;4975496;28;20380;-84
2023/10/06 04:31:47;;;;;;;20.90;7.28;;;14.40;99.90;;;;;;4976487;28;20939;-83
2023/10/06 04:34:37;;;;;;;24.25;8.65;;;14.40;99.90;;;;;;4976663;28;20574;-83
2023/10/06 04:37:24;;;;;;;19.70;7.93;;;14.40;99.90;;;;;;4976784;28;20093;-71
2023/10/06 04:40:16;;;;;;;29.10;9.27;;;14.40;99.90;;;;;;4976611;28;20050;-83
2023/10/06 04:43:03;;;;;;;27.15;8.48;;;14.40;99.90;;;;;;4976242;28;20058;-85
2023/10/06 04:45:50;;;;;;;23.48;9.45;;;14.40;99.90;;;;;;4976625;28;20120;-77
2023/10/06 04:48:36;;;;;;;31.60;9.98;;;14.40;99.90;;;;;;4976636;28;20054;-76
2023/10/06 04:51:22;;;;;;;22.55;8.48;;;14.40;99.90;;;;;;4976423;28;20628;-73
2023/10/06 04:54:08;;;;;;;27.33;9.48;;;14.40;99.90;;;;;;4976667;28;20054;-72
2023/10/06 04:56:54;;;;;;;22.23;7.93;;;14.50;99.90;;;;;;4976501;28;20123;-77
2023/10/06 04:59:40;;;;;;;22.48;8.95;;;14.40;99.90;;;;;;4976500;28;20186;-76
2023/10/06 05:02:26;;;;;;;22.55;8.38;;;14.50;99.90;;;;;;4975905;28;20061;-73
2023/10/06 05:05:12;;;;;;;24.60;8.48;;;14.50;99.90;;;;;;4992223;28;20369;-74
2023/10/06 05:07:58;;;;;;;30.35;9.05;;;14.50;99.90;;;;;;4976282;28;20129;-78
2023/10/06 05:10:44;;;;;;;26.30;9.25;;;14.50;99.90;;;;;;4961742;28;20502;-79
2023/10/06 05:13:30;;;;;;;25.50;8.43;;;14.50;99.90;;;;;;4975843;28;20558;-86
2023/10/06 05:16:18;;;;;;;24.23;10.10;;;14.60;99.90;;;;;;4962298;28;20065;-74
2023/10/06 05:19:04;;;;;;;20.70;7.63;;;14.60;99.90;;;;;;4962024;28;20149;-74
2023/10/06 05:21:52;;;;;;;27.92;9.95;;;14.60;99.90;;;;;;4975918;28;20077;-76
2023/10/06 05:24:39;;;;;;;23.33;8.20;;;14.60;99.90;;;;;;4962668;28;20054;-88
2023/10/06 05:27:25;;;;;;;23.23;8.25;;;14.60;99.90;;;;;;4993170;28;20042;-83
2023/10/06 05:30:13;;;;;;;23.02;9.23;;;14.60;99.90;;;;;;4961285;28;20057;-79
2023/10/06 05:33:03;;;;;;;26.23;9.07;;;14.60;99.90;;;;;;4974751;28;20066;-77
2023/10/06 05:35:49;;;;;;;23.35;8.13;;;14.60;99.90;;;;;;4975587;28;20061;-84
2023/10/06 05:38:36;;;;;;;22.25;7.78;;;14.60;99.90;;;;;;4975419;28;20066;-80
2023/10/06 05:41:30;;;;;;;23.25;8.15;;;14.60;99.90;;;;;;4975228;28;20054;-73
2023/10/06 05:44:16;;;;;;;24.23;8.50;;;14.60;99.90;;;;;;4975541;28;20510;-80
2023/10/06 05:47:04;;;;;;;25.17;7.22;;;14.60;99.90;;;;;;4974853;28;20055;-72
2023/10/06 05:49:53;;;;;;;25.60;8.07;;;14.60;99.90;;;;;;4975309;28;20050;-75
2023/10/06 05:52:39;;;;;;;26.50;6.82;;;14.60;99.90;;;;;;4991529;28;20054;-75
2023/10/06 05:55:34;;;;;;;17.75;6.28;;;14.60;99.90;;;;;;4993058;28;20129;-74
2023/10/06 05:58:23;;;;;;;;;;;14.70;99.90;;;;;;4992126;28;20046;-78
2023/10/06 06:01:18;;;;;;;19.58;6.30;;;14.60;99.90;;;;;;4993263;28;19925;-77
2023/10/06 06:04:09;;;;;;;23.85;5.97;;;14.70;99.90;;;;;;4975427;28;20417;-72
2023/10/06 06:07:02;;;;;;;16.73;5.82;;;14.70;99.90;;;;;;4960577;28;20046;-73
2023/10/06 06:09:49;;;;;;;22.13;6.13;;;14.80;99.90;;;;;;4975283;28;20058;-83
2023/10/06 06:12:36;;;;;;;16.67;6.13;;;14.80;99.90;;;;;;4992194;28;20082;-73
2023/10/06 06:15:22;;;;;;;15.30;4.95;;;14.80;99.90;;;;;;4974679;28;20141;-73
2023/10/06 06:18:08;;;;;;;21.73;5.10;;;14.80;99.90;;;;;;4974693;28;20105;-75
2023/10/06 06:20:54;;;;;;;17.92;5.38;;;14.90;99.90;;;;;;4961146;28;20065;-73
2023/10/06 06:23:46;;;;;;;18.48;5.45;;;14.90;99.90;;;;;;4974106;28;20061;-74
2023/10/06 06:26:33;;;;;;;21.92;6.18;;;14.90;99.90;;;;;;4974820;28;20528;-75
2023/10/06 06:29:19;;;;;;;18.63;6.30;;;14.90;99.90;;;;;;4962119;28;20439;-77
2023/10/06 06:32:11;;;;;;;25.33;5.82;;;15.00;99.90;;;;;;4975071;28;20475;-80
2023/10/06 06:34:57;;;;;;;22.90;6.43;;;15.00;99.90;;;;;;4979179;28;20051;-80
2023/10/06 06:37:43;;;;;;;19.05;6.13;;;14.90;99.90;;;;;;4979029;28;20062;-75
2023/10/06 06:40:29;;;;;;;19.08;5.97;;;14.90;99.90;;;;;;4979195;28;20061;-82
2023/10/06 06:43:19;;;;;;;23.73;6.32;;;14.90;99.90;;;;;;4977900;28;20062;-76
2023/10/06 06:46:05;;;;;;;20.30;6.20;;;14.90;99.90;;;;;;4996985;28;20105;-78
2023/10/06 06:48:51;;;;;;;21.58;6.68;;;15.00;99.90;;;;;;4979406;28;20411;-80
2023/10/06 06:51:37;;;;;;;21.33;6.85;;;14.90;99.90;;;;;;4978992;28;20053;-79
2023/10/06 06:54:24;;;;;;;17.27;5.72;;;14.90;99.90;;;;;;4978819;28;20062;-75
2023/10/06 06:57:12;;;;;;;23.63;7.43;;;14.90;99.90;;;;;;4995650;28;20078;-80
2023/10/06 06:59:58;;;;;;;26.88;6.75;;;14.90;99.90;;;;;;4978290;28;20145;-80
2023/10/06 07:02:46;;;;;;;17.73;6.45;;;14.90;99.90;;;;;;4978365;28;20529;-85
2023/10/06 07:05:34;;;;;;;23.73;6.38;;;14.90;99.90;;;;;;4964126;28;20156;-75
2023/10/06 07:08:20;;;;;;;33.92;6.88;;;14.90;99.90;;;;;;4978013;28;20058;-84
2023/10/06 07:11:10;;;;;;;19.15;6.57;;;14.90;99.90;;;;;;4995270;28;20055;-82
2023/10/06 07:13:56;;;;;;;22.40;6.45;;;14.90;99.90;;;;;;4976721;28;20050;-76
2023/10/06 07:16:43;;;;;;;25.42;7.28;;;14.90;99.90;;;;;;4977381;28;20096;-76
2023/10/06 07:19:29;;;;;;;27.92;6.13;;;14.90;99.90;;;;;;4976929;28;20062;-84
2023/10/06 07:22:15;;;;;;;17.83;6.72;;;14.90;99.90;;;;;;4977726;28;20062;-80
2023/10/06 07:25:02;;;;;;;19.23;6.20;;;14.80;99.90;;;;;;4977726;28;20062;-82
2023/10/06 07:27:50;;;;;;;21.45;6.40;;;14.90;99.90;;;;;;4964666;28;20081;-81
2023/10/06 07:30:36;;;;;;;25.35;7.13;;;14.90;99.90;;;;;;4964099;28;20055;-85
2023/10/06 07:33:23;;;;;;;22.67;6.47;;;14.90;99.90;;;;;;4977381;28;20061;-75
2023/10/06 07:36:13;;;;;;;17.80;6.53;;;14.90;99.90;;;;;;4977620;28;20442;-82
2023/10/06 07:38:59;;;;;;;23.95;6.80;;;14.90;99.90;;;;;;4977522;28;20506;-77
2023/10/06 07:41:46;;;;;;;23.90;6.65;;;14.90;99.90;;;;;;4995178;28;20051;-78
2023/10/06 07:44:33;;;;;;;26.92;6.68;;;14.90;99.90;;;;;;4994692;28;20105;-80
2023/10/06 07:47:24;;;;;;;21.15;6.93;;;14.90;99.90;;;;;;4976007;28;20065;-78
2023/10/06 07:50:14;;;;;;;21.40;6.60;;;15.00;99.90;;;;;;4977775;28;20046;-80
2023/10/06 07:53:01;;;;;;;31.73;8.15;;;15.00;99.90;;;;;;4967228;28;20086;-81
2023/10/06 07:55:47;;;;;;;25.95;8.15;;;15.00;99.90;;;;;;4977293;28;20064;-76
2023/10/06 07:58:38;;;;;;;22.25;7.63;;;15.00;99.90;;;;;;4978536;28;20058;-76
2023/10/06 08:01:24;;;;;;;26.02;7.40;;;15.00;99.90;;;;;;4994375;28;20058;-80
2023/10/06 08:04:10;;;;;;;27.13;7.18;;;15.10;99.90;;;;;;4993047;28;20058;-79
2023/10/06 08:06:56;;;;;;;17.58;6.47;;;15.10;99.90;;;;;;4976995;28;20046;-83
2023/10/06 08:09:43;;;;;;;21.85;8.20;;;15.10;99.90;;;;;;4976821;28;20061;-75
2023/10/06 08:12:33;;;;;;;23.17;7.57;;;15.20;99.90;;;;;;4994638;28;20475;-74
2023/10/06 08:15:22;;;;;;;23.40;6.40;;;15.20;99.90;;;;;;4976916;28;20065;-76
2023/10/06 08:18:09;;;;;;;33.47;8.27;;;15.20;99.90;;;;;;4976032;28;20054;-79
2023/10/06 08:21:00;;;;;;;24.25;8.10;;;15.30;99.90;;;;;;4976647;28;20090;-77
2023/10/06 08:23:47;;;;;;;27.10;7.78;;;15.30;99.90;;;;;;4994409;28;20058;-75
2023/10/06 08:26:36;;;;;;;17.73;6.63;;;15.30;99.90;;;;;;4993116;28;20046;-76
2023/10/06 08:29:23;;;;;;;20.48;6.93;;;15.40;99.90;;;;;;4976477;28;20046;-78
2023/10/06 08:32:09;;;;;;;26.30;7.30;;;15.50;99.90;;;;;;4994236;28;20043;-75
2023/10/06 08:34:55;;;;;;;25.48;6.28;;;15.50;99.90;;;;;;4975539;28;20105;-83
2023/10/06 08:37:43;;;;;;;29.27;7.57;;;15.60;99.90;;;;;;4976582;28;20058;-74
2023/10/06 08:40:31;;;;;;;23.80;6.68;;;15.60;99.90;;;;;;4976596;28;20125;-80
2023/10/06 08:43:21;;;;;;;17.77;6.20;;;15.70;99.90;;;;;;4965067;28;20216;-76
2023/10/06 08:46:08;;;;;;;21.35;6.72;;;15.80;99.90;;;;;;4969893;28;20062;-74
2023/10/06 08:48:56;;;;;;;19.05;5.60;;;15.90;99.90;;;;;;4982176;28;20118;-74
2023/10/06 08:51:42;;;;;;;23.67;7.90;;;16.00;99.90;;;;;;4979351;28;20146;-79
2023/10/06 08:54:30;;;;;;;17.23;6.65;;;16.10;99.90;;;;;;4977997;28;20117;-80
2023/10/06 08:57:16;;;;;;;27.30;6.82;;;16.10;99.90;;;;;;4963966;28;20066;-77
2023/10/06 09:00:07;;;;;;;18.35;5.55;;;16.20;99.90;;;;;;4993407;28;20517;-78
2023/10/06 09:02:54;;;;;;;22.95;5.78;;;16.30;99.90;;;;;;4993485;28;20414;-75
2023/10/06 09:05:42;;;;;;;19.45;5.35;;;16.30;99.90;;;;;;4974909;28;20050;-76
2023/10/06 09:08:49;;;;;;;16.20;5.25;;;16.40;99.90;;;;;;4993385;28;20050;-74
2023/10/06 09:11:39;;;;;;;16.55;4.57;;;16.40;99.90;;;;;;4993270;28;20050;-76
2023/10/06 09:14:25;;;;;;;21.55;5.75;;;16.50;99.90;;;;;;4975228;28;20457;-76
2023/10/06 09:17:12;;;;;;;17.75;6.63;;;16.50;99.90;;;;;;4991713;28;20050;-74
2023/10/06 09:19:58;;;;;;;15.13;5.70;;;16.60;99.90;;;;;;4974069;28;20050;-73
2023/10/06 09:22:46;;;;;;;20.17;5.95;;;16.70;99.90;;;;;;4975503;28;20137;-72
2023/10/06 09:25:51;;;;;;;21.70;4.72;;;16.70;99.90;;;;;;4961260;28;20050;-73
2023/10/06 09:28:55;;;;;;;25.50;5.55;;;16.80;99.90;;;;;;4962654;28;20526;-75
2023/10/06 09:31:51;;;;;;;19.13;5.15;;;16.80;99.90;;;;;;4961253;28;20161;-79
2023/10/06 09:34:38;;;;;;;22.20;5.63;;;16.90;99.90;;;;;;4974550;28;20057;-74
2023/10/06 09:37:26;;;;;;;19.75;5.07;;;17.00;99.90;;;;;;4975337;28;20050;-74
2023/10/06 09:40:22;;;;;;;17.52;4.57;;;17.00;99.90;;;;;;4975306;28;20108;-75
2023/10/06 09:43:17;;;;;;;20.20;4.40;;;17.10;99.90;;;;;;4962566;28;20065;-74
2023/10/06 09:46:10;;;;;;;26.23;5.30;;;17.20;99.90;;;;;;4975365;28;20054;-73
2023/10/06 09:49:01;;;;;;;28.42;5.80;;;17.40;99.90;;;;;;4976678;28;20521;-82
2023/10/06 09:51:51;;;;;;;26.13;4.70;;;17.60;99.90;;;;;;4975249;28;20112;-74
2023/10/06 09:54:38;;;;;;;17.35;4.28;;;17.70;99.90;;;;;;4975182;28;20411;-75
2023/10/06 09:57:25;;;;;;;22.38;3.92;;;17.70;99.90;;;;;;4974971;28;20050;-75
2023/10/06 10:00:16;;;;;;;20.10;4.40;;;17.90;99.90;;;;;;4974815;28;20058;-75
2023/10/06 10:03:04;;;;;;;16.98;3.47;;;18.10;99.90;;;;;;4961189;28;20046;-74
2023/10/06 10:05:52;;;;;;;13.00;3.67;;;18.30;99.90;;;;;;4962178;28;20113;-80
2023/10/06 10:08:41;;;;;;;12.82;3.40;;;18.40;99.90;;;;;;4974055;28;20185;-74
2023/10/06 10:11:33;;;;;;;21.67;5.20;;;18.40;99.90;;;;;;4992465;28;20133;-76
2023/10/06 10:14:32;;;;;;;24.48;5.03;;;18.50;99.90;;;;;;4974990;28;20046;-74
2023/10/06 10:17:30;;;;;;;14.75;4.40;;;18.60;99.90;;;;;;4974778;28;20058;-74
2023/10/06 10:20:17;;;;;;;19.02;3.60;;;18.50;99.90;;;;;;4961827;28;20566;-80
2023/10/06 10:23:04;;;;;;;20.35;4.30;;;18.50;99.90;;;;;;4974968;28;20054;-73
2023/10/06 10:25:51;;;;;;;18.92;3.33;;;18.60;99.90;;;;;;4974583;28;20051;-75
2023/10/06 10:28:37;;;;;;;15.52;3.83;;;18.60;99.90;;;;;;4975039;28;20053;-75
2023/10/06 10:31:24;;;;;;;19.88;4.05;;;18.70;99.90;;;;;;4974722;28;20050;-74
2023/10/06 10:34:25;;;;;;;14.35;4.00;;;18.70;99.90;;;;;;4973326;28;20096;-74
2023/10/06 10:37:12;;;;;;;17.30;3.47;;;18.70;99.90;;;;;;4992001;28;20051;-74
2023/10/06 10:39:58;;;;;;;15.07;4.15;;;18.70;99.90;;;;;;4992009;28;20411;-74
2023/10/06 10:42:44;;;;;;;18.63;3.63;;;18.70;99.90;;;;;;4974568;28;20046;-75
2023/10/06 10:45:36;;;;;;;19.80;4.30;;;18.70;99.90;;;;;;4961686;28;20406;-75
2023/10/06 10:48:32;;;;;;;17.45;3.63;;;18.90;99.90;;;;;;4961585;28;20109;-77
2023/10/06 10:51:21;;;;;;;19.30;4.88;;;19.00;99.90;;;;;;4973990;28;20103;-78
2023/10/06 10:54:10;;;;;;;17.60;3.67;;;19.20;99.90;;;;;;4974264;28;20061;-74
2023/10/06 10:57:02;;;;;;;15.68;3.75;;;19.30;99.90;;;;;;4991831;28;20108;-74
2023/10/06 11:00:00;;;;;;;17.90;3.60;;;19.60;99.90;;;;;;4974037;28;20058;-74
2023/10/06 11:02:49;;;;;;;13.55;3.65;;;19.80;99.90;;;;;;4974259;28;20053;-77
2023/10/06 11:05:38;;;;;;;20.00;3.42;;;20.10;99.90;;;;;;4974605;28;20055;-75
2023/10/06 11:08:24;;;;;;;20.27;3.90;;;20.10;99.90;;;;;;4974179;28;20494;-76
2023/10/06 11:11:12;;;;;;;16.50;4.43;;;20.10;99.90;;;;;;4974452;28;20454;-74
2023/10/06 11:13:58;;;;;;;19.40;4.13;;;20.00;99.90;;;;;;4973071;28;20109;-75
2023/10/06 11:16:47;;;;;;;17.10;4.82;;;20.00;99.90;;;;;;4974035;28;20061;-76
2023/10/06 11:19:36;;;;;;;17.70;3.78;;;19.90;99.90;;;;;;4962247;28;20054;-74
2023/10/06 11:22:22;;;;;;;16.25;3.72;;;20.00;99.90;;;;;;4976247;28;20138;-74
2023/10/06 11:25:10;;;;;;;12.18;2.97;;;19.80;99.90;;;;;;4995439;28;20057;-75
2023/10/06 11:28:04;;;;;;;16.40;4.35;;;19.70;99.90;;;;;;4994169;28;20058;-77
2023/10/06 11:30:50;;;;;;;13.52;3.75;;;19.60;99.90;;;;;;4962887;28;20086;-83
2023/10/06 11:33:37;;;;;;;15.32;4.22;;;19.50;99.90;;;;;;4977432;28;20060;-74
2023/10/06 11:36:23;;;;;;;15.30;4.50;;;19.50;99.90;;;;;;4977311;28;20175;-81
2023/10/06 11:39:09;;;;;;;14.45;3.30;;;20.20;99.90;;;;;;4977571;28;20058;-75
2023/10/06 11:42:29;;;;;;;16.55;3.42;;;20.70;99.90;;;;;;4977476;28;20051;-77
2023/10/06 11:45:27;;;;;;;22.35;3.50;;;20.80;99.90;;;;;;4977079;28;20058;-79
2023/10/06 11:48:31;;;;;;;14.05;3.63;;;20.90;99.90;;;;;;4975867;28;20060;-74
2023/10/06 11:51:17;;;;;;;17.60;4.15;;;20.60;99.90;;;;;;4975888;28;20054;-75
2023/10/06 11:54:03;;;;;;;13.07;3.70;;;20.40;99.90;;;;;;4977150;28;20054;-75
2023/10/06 11:56:54;;;;;;;14.77;3.58;;;20.50;99.90;;;;;;4976478;28;20407;-75
2023/10/06 11:59:51;;;;;;;22.67;3.97;;;20.50;99.90;;;;;;4977482;28;20093;-74
2023/10/06 12:02:50;;;;;;;15.02;3.83;;;20.40;99.90;;;;;;4977450;28;20062;-91
2023/10/06 12:05:37;;;;;;;15.52;4.50;;;20.20;99.90;;;;;;4976734;28;20057;-74
2023/10/06 12:08:24;;;;;;;15.70;3.55;;;20.10;99.90;;;;;;4977036;28;20050;-74
2023/10/06 12:11:12;;;;;;;16.60;3.60;;;19.90;99.90;;;;;;4976953;28;20090;-75
2023/10/06 12:13:58;;;;;;;18.60;5.05;;;20.00;99.90;;;;;;4976923;28;20506;-78
2023/10/06 12:16:46;;;;;;;15.02;4.07;;;20.20;99.90;;;;;;4976635;28;20050;-76
2023/10/06 12:19:32;;;;;;;15.68;3.17;;;19.90;99.90;;;;;;4962712;28;20108;-83
2023/10/06 12:22:18;;;;;;;19.00;4.32;;;19.80;99.90;;;;;;4976856;28;20194;-73
2023/10/06 12:25:04;;;;;;;16.88;4.15;;;19.60;99.90;;;;;;4976256;28;20100;-82
2023/10/06 12:27:51;;;;;;;22.40;3.47;;;19.50;99.90;;;;;;4963341;28;20050;-80
2023/10/06 12:30:37;;;;;;;12.88;3.25;;;19.40;99.90;;;;;;4991996;28;20046;-77
2023/10/06 12:33:23;;;;;;;17.88;3.42;;;19.20;99.90;;;;;;4993700;28;20100;-79
2023/10/06 12:36:09;;;;;;;23.20;4.72;;;19.10;99.90;;;;;;4963911;28;20145;-80
2023/10/06 12:38:55;;;;;;;26.95;5.05;;;19.00;99.90;;;;;;4976726;28;20062;-77
2023/10/06 12:41:46;;;;;;;21.15;3.83;;;19.00;99.90;;;;;;4976425;28;20519;-74
2023/10/06 12:44:34;;;;;;;13.20;2.70;;;18.90;99.90;;;;;;4975420;28;20121;-73
2023/10/06 12:47:21;;;;;;;21.33;3.63;;;18.90;99.90;;;;;;4976326;28;20141;-73
2023/10/06 12:50:08;;;;;;;16.45;4.25;;;18.90;99.90;;;;;;4976122;28;20050;-77
2023/10/06 12:52:55;;;;;;;15.95;3.65;;;18.80;99.90;;;;;;4976435;28;20062;-74
2023/10/06 12:55:43;;;;;;;15.93;4.22;;;18.70;99.90;;;;;;4976478;28;20065;-79
2023/10/06 12:58:30;;;;;;;20.92;4.65;;;18.70;99.90;;;;;;4976091;28;20069;-78
2023/10/06 13:01:16;;;;;;;25.35;5.43;;;18.70;99.90;;;;;;4975436;28;20054;-74
2023/10/06 13:04:02;;;;;;;16.23;4.03;;;18.70;99.90;;;;;;4993781;28;20398;-79
2023/10/06 13:06:48;;;;;;;18.00;4.13;;;18.70;99.90;;;;;;4992312;28;20081;-72
2023/10/06 13:09:36;;;;;;;20.48;3.50;;;18.60;99.90;;;;;;4974981;28;20058;-75
2023/10/06 13:12:24;;;;;;;17.80;3.97;;;18.60;99.90;;;;;;4974569;28;20063;-78
2023/10/06 13:15:17;;;;;;;22.15;4.38;;;18.60;99.90;;;;;;4975158;28;20065;-78
2023/10/06 13:18:03;;;;;;;18.65;4.40;;;18.80;99.90;;;;;;4974092;28;20046;-72
2023/10/06 13:20:49;;;;;;;19.27;3.72;;;18.80;99.90;;;;;;4975498;28;20050;-73
2023/10/06 13:23:36;;;;;;;21.98;4.53;;;18.80;99.90;;;;;;4975565;28;20422;-75
2023/10/06 13:26:22;;;;;;;20.83;4.88;;;18.70;99.90;;;;;;4962398;28;20086;-75
2023/10/06 13:29:08;;;;;;;18.60;3.60;;;18.60;99.90;;;;;;4975479;28;20120;-80
2023/10/06 13:31:55;;;;;;;19.15;4.55;;;18.40;99.90;;;;;;4974694;28;20050;-75
2023/10/06 13:34:42;;;;;;;18.70;4.00;;;18.40;99.90;;;;;;4975489;28;20487;-72
2023/10/06 13:37:28;;;;;;;20.15;3.92;;;18.30;99.90;;;;;;4975254;28;20050;-75
2023/10/06 13:40:17;;;;;;;16.95;3.42;;;18.30;99.90;;;;;;4975460;28;20046;-74
2023/10/06 13:43:06;;;;;;;21.75;4.70;;;18.40;99.90;;;;;;4974321;28;20050;-75
2023/10/06 13:45:57;;;;;;;24.60;5.53;;;18.40;99.90;;;;;;4975507;28;20521;-78
2023/10/06 13:48:43;;;;;;;21.58;4.15;;;18.50;99.90;;;;;;4975326;28;20507;-73
2023/10/06 13:51:29;;;;;;;24.05;4.68;;;18.50;99.90;;;;;;4975315;28;20145;-72
2023/10/06 13:54:17;;;;;;;20.50;4.90;;;18.50;99.90;;;;;;4991220;28;20129;-72
2023/10/06 13:57:06;;;;;;;20.52;4.63;;;18.50;99.90;;;;;;4974992;28;20388;-79
2023/10/06 13:59:52;;;;;;;17.45;4.32;;;18.50;99.90;;;;;;4974868;28;20058;-84
2023/10/06 14:02:38;;;;;;;27.23;4.63;;;18.50;99.90;;;;;;4992506;28;20058;-75
2023/10/06 14:05:29;;;;;;;15.07;3.50;;;18.40;99.90;;;;;;4992584;28;20132;-75
2023/10/06 14:08:17;;;;;;;19.58;4.20;;;18.40;99.90;;;;;;4991260;28;20050;-86
2023/10/06 14:11:03;;;;;;;22.48;4.50;;;18.40;99.90;;;;;;4974404;28;20086;-83
2023/10/06 14:13:50;;;;;;;19.50;3.97;;;18.30;99.90;;;;;;4973117;28;20086;-82
2023/10/06 14:16:38;;;;;;;26.08;4.90;;;18.30;99.90;;;;;;4962060;28;20530;-73
2023/10/06 14:19:24;;;;;;;16.92;3.85;;;18.30;99.90;;;;;;4974787;28;20058;-77
2023/10/06 14:22:10;;;;;;;34.50;4.93;;;18.20;99.90;;;;;;4975049;28;20509;-73
2023/10/06 14:24:58;;;;;;;20.80;4.22;;;18.10;99.90;;;;;;4961820;28;20054;-74
2023/10/06 14:27:44;;;;;;;21.67;4.80;;;18.10;99.90;;;;;;4974357;28;20058;-73
2023/10/06 14:30:34;;;;;;;20.20;4.35;;;18.10;99.90;;;;;;4974681;28;20046;-73
2023/10/06 14:33:23;;;;;;;18.50;4.57;;;18.20;99.90;;;;;;4961280;28;20050;-80